createdAt,value
2023-12-11T00:00:07.963Z,99.31
2023-12-11T00:05:12.894Z,99.20
2023-12-11T00:10:17.778Z,99.45
2023-12-11T00:15:22.592Z,99.15
2023-12-11T00:20:26.022Z,99.19
2023-12-11T00:25:30.823Z,99.11
2023-12-11T00:30:35.317Z,99.39
2023-12-11T00:35:39.642Z,99.56
2023-12-11T00:40:44.797Z,99.39
2023-12-11T00:45:49.961Z,99.22
2023-12-11T00:50:54.908Z,99.31
2023-12-11T00:56:00.044Z,99.21
2023-12-11T01:01:04.095Z,99.06
2023-12-11T01:06:09.098Z,99.07
2023-12-11T01:11:13.307Z,98.91
2023-12-11T01:16:19.022Z,98.85
2023-12-11T01:21:23.969Z,98.56
2023-12-11T01:26:28.592Z,98.61
2023-12-11T01:31:33.876Z,98.73
2023-12-11T01:36:38.955Z,98.50
2023-12-11T01:41:43.264Z,98.62
2023-12-11T01:46:48.665Z,98.78
2023-12-11T01:51:54.401Z,98.99
2023-12-11T01:56:59.453Z,98.92
2023-12-11T02:02:04.747Z,98.94
2023-12-11T02:07:09.163Z,98.90
2023-12-11T02:12:14.544Z,98.81
2023-12-11T02:17:19.098Z,98.48
2023-12-11T02:22:23.774Z,98.44
2023-12-11T02:27:29.153Z,98.44
2023-12-11T02:32:34.008Z,98.53
2023-12-11T02:37:39.218Z,98.61
2023-12-11T02:42:51.864Z,98.48
2023-12-11T02:48:04.974Z,98.42
2023-12-11T02:53:09.839Z,98.23
2023-12-11T02:58:14.779Z,98.48
2023-12-11T03:03:19.093Z,98.36
2023-12-11T03:08:24.311Z,98.39
2023-12-11T03:13:28.146Z,98.04
2023-12-11T03:18:33.579Z,98.09
2023-12-11T03:23:39.489Z,98.05
2023-12-11T03:28:44.257Z,98.20
2023-12-11T03:33:49.821Z,98.15
2023-12-11T03:38:54.190Z,98.13
2023-12-11T03:43:58.872Z,98.31
2023-12-11T03:49:04.661Z,98.24
2023-12-11T03:54:09.003Z,98.23
2023-12-11T03:59:15.372Z,98.05
2023-12-11T04:04:20.029Z,98.34
2023-12-11T04:09:25.282Z,98.39
2023-12-11T04:14:30.272Z,98.31
2023-12-11T04:19:35.070Z,98.16
2023-12-11T04:24:39.698Z,98.16
2023-12-11T04:29:44.464Z,98.18
2023-12-11T04:34:48.881Z,98.47
2023-12-11T04:39:54.657Z,98.26
2023-12-11T04:44:59.513Z,98.16
2023-12-11T04:50:04.362Z,98.27
2023-12-11T04:55:09.164Z,98.39
2023-12-11T05:00:16.985Z,98.18
2023-12-11T05:05:22.111Z,97.98
2023-12-11T05:10:26.160Z,98.07
2023-12-11T05:15:30.551Z,98.27
2023-12-11T05:20:34.910Z,98.03
2023-12-11T05:25:39.677Z,97.96
2023-12-11T05:30:44.705Z,98.08
2023-12-11T05:35:50.129Z,98.28
2023-12-11T05:40:54.830Z,98.60
2023-12-11T05:45:59.081Z,98.44
2023-12-11T05:51:02.722Z,98.76
2023-12-11T05:56:07.786Z,98.66
2023-12-11T06:01:12.557Z,98.65
2023-12-11T06:06:17.863Z,98.50
2023-12-11T06:11:22.600Z,98.91
2023-12-11T06:16:28.452Z,98.84
2023-12-11T06:21:33.406Z,99.12
2023-12-11T06:26:38.415Z,99.17
2023-12-11T06:31:42.571Z,99.12
2023-12-11T06:36:47.813Z,99.49
2023-12-11T06:41:52.059Z,99.71
2023-12-11T06:46:57.091Z,99.90
2023-12-11T06:52:01.710Z,99.96
2023-12-11T06:57:06.605Z,99.94
2023-12-11T07:02:11.532Z,99.82
2023-12-11T07:07:16.042Z,99.90
2023-12-11T07:12:20.034Z,99.84
2023-12-11T07:17:24.547Z,99.91
2023-12-11T07:22:29.835Z,99.94
2023-12-11T07:27:35.979Z,99.97
2023-12-11T07:32:41.168Z,99.99
2023-12-11T07:37:46.452Z,100.00
2023-12-11T07:42:51.744Z,99.94
2023-12-11T07:47:56.693Z,99.99
2023-12-11T07:53:01.358Z,99.98
2023-12-11T07:58:06.089Z,100.00
2023-12-11T08:03:10.799Z,100.00
2023-12-11T08:08:15.204Z,100.00
2023-12-11T08:13:20.497Z,99.99
2023-12-11T08:18:26.084Z,100.00
2023-12-11T08:23:31.026Z,100.00
2023-12-11T08:28:36.227Z,100.00
2023-12-11T08:33:41.443Z,100.00
2023-12-11T08:38:46.705Z,100.00
2023-12-11T08:43:51.801Z,100.00
2023-12-11T08:48:55.731Z,100.00
2023-12-11T08:54:01.325Z,99.99
2023-12-11T08:59:05.390Z,99.97
2023-12-11T09:04:09.730Z,100.00
2023-12-11T09:09:15.220Z,100.00
2023-12-11T09:14:22.070Z,99.98
2023-12-11T09:19:36.212Z,100.00
2023-12-11T09:24:49.100Z,99.94
2023-12-11T09:29:53.979Z,99.91
2023-12-11T09:34:58.945Z,99.99
2023-12-11T09:40:04.354Z,99.86
2023-12-11T09:45:10.049Z,99.90
2023-12-11T09:50:17.654Z,99.87
2023-12-11T09:55:21.165Z,99.93
2023-12-11T10:00:26.430Z,99.76
2023-12-11T10:05:30.772Z,99.49
2023-12-11T10:10:40.222Z,99.59
2023-12-11T10:15:46.390Z,99.73
2023-12-11T10:20:56.305Z,99.81
2023-12-11T10:26:09.358Z,99.47
2023-12-11T10:31:14.196Z,99.01
2023-12-11T10:36:18.757Z,98.75
2023-12-11T10:41:27.972Z,98.72
2023-12-11T10:46:33.463Z,98.72
2023-12-11T10:51:38.374Z,98.25
2023-12-11T10:56:47.917Z,98.04
2023-12-11T11:01:53.147Z,98.28
2023-12-11T11:07:10.167Z,98.58
2023-12-11T11:12:51.085Z,98.52
2023-12-11T11:18:05.085Z,98.56
2023-12-11T11:23:18.941Z,97.84
2023-12-11T11:28:44.563Z,97.88
2023-12-11T11:33:52.874Z,98.44
2023-12-11T11:39:03.990Z,98.02
2023-12-11T11:44:10.416Z,97.87
2023-12-11T11:49:39.137Z,97.49
2023-12-11T11:54:44.666Z,96.87
2023-12-11T11:59:52.038Z,97.07
2023-12-11T12:05:10.409Z,96.72
2023-12-11T12:10:19.254Z,96.66
2023-12-11T12:15:23.167Z,96.64
2023-12-11T12:20:28.122Z,96.52
2023-12-11T12:25:33.927Z,96.24
2023-12-11T12:30:37.911Z,95.93
2023-12-11T12:35:45.656Z,96.12
2023-12-11T12:40:50.700Z,96.08
2023-12-11T12:46:02.309Z,95.77
2023-12-11T12:51:10.935Z,95.80
2023-12-11T12:56:19.158Z,95.53
2023-12-11T13:01:24.412Z,95.21
2023-12-11T13:06:28.805Z,95.48
2023-12-11T13:11:51.660Z,95.28
2023-12-11T13:16:57.418Z,95.10
2023-12-11T13:22:02.222Z,94.67
2023-12-11T13:27:07.867Z,94.77
2023-12-11T13:32:16.927Z,95.14
2023-12-11T13:37:21.975Z,95.26
2023-12-11T13:42:26.502Z,95.11
2023-12-11T13:47:33.016Z,94.44
2023-12-11T13:52:39.287Z,94.57
2023-12-11T13:57:45.095Z,94.74
2023-12-11T14:03:00.880Z,94.86
2023-12-11T14:08:08.774Z,95.29
2023-12-11T14:13:17.124Z,95.35
2023-12-11T14:18:24.295Z,94.90
2023-12-11T14:23:29.863Z,94.94
2023-12-11T14:28:35.691Z,95.21
2023-12-11T14:33:41.472Z,95.50
2023-12-11T14:38:48.531Z,95.44
2023-12-11T14:43:54.614Z,95.30
2023-12-11T14:49:02.513Z,95.42
2023-12-11T14:54:10.540Z,95.87
2023-12-11T14:59:15.863Z,95.68
2023-12-11T15:04:25.635Z,95.14
2023-12-11T15:09:39.302Z,95.01
2023-12-11T15:14:43.235Z,95.04
2023-12-11T15:19:48.169Z,94.68
2023-12-11T15:24:52.435Z,94.99
2023-12-11T15:29:57.107Z,94.95
2023-12-11T15:35:02.422Z,95.07
2023-12-11T15:40:09.206Z,95.05
2023-12-11T15:45:14.039Z,95.16
2023-12-11T15:50:19.286Z,95.07
2023-12-11T15:55:23.222Z,95.09
2023-12-11T16:00:28.811Z,95.32
2023-12-11T16:05:33.809Z,95.17
2023-12-11T16:10:42.997Z,95.14
2023-12-11T16:15:48.285Z,95.23
2023-12-11T16:20:53.039Z,95.38
2023-12-11T16:26:03.064Z,95.22
2023-12-11T16:31:09.955Z,95.14
2023-12-11T16:36:15.528Z,95.39
2023-12-11T16:41:29.997Z,95.46
2023-12-11T16:46:34.720Z,95.33
2023-12-11T16:51:40.103Z,95.53
2023-12-11T16:56:45.611Z,95.53
2023-12-11T17:01:50.751Z,95.46
2023-12-11T17:06:55.368Z,95.13
2023-12-11T17:12:00.254Z,94.97
2023-12-11T17:17:08.120Z,95.14
2023-12-11T17:22:13.640Z,95.12
2023-12-11T17:27:17.675Z,95.27
2023-12-11T17:32:23.170Z,95.51
2023-12-11T17:37:28.009Z,95.41
2023-12-11T17:42:32.399Z,95.46
2023-12-11T17:47:36.940Z,95.59
2023-12-11T17:52:43.089Z,95.74
2023-12-11T17:57:47.262Z,95.65
2023-12-11T18:02:53.870Z,95.86
2023-12-11T18:07:58.076Z,96.27
2023-12-11T18:13:02.731Z,95.88
2023-12-11T18:18:06.872Z,96.19
2023-12-11T18:23:10.819Z,96.07
2023-12-11T18:28:16.832Z,96.21
2023-12-11T18:33:20.798Z,96.24
2023-12-11T18:38:25.125Z,96.33
2023-12-11T18:43:29.657Z,96.50
2023-12-11T18:48:34.115Z,96.84
2023-12-11T18:53:39.711Z,96.21
2023-12-11T18:58:45.332Z,96.35
2023-12-11T19:03:51.684Z,96.66
2023-12-11T19:08:57.696Z,96.37
2023-12-11T19:14:03.110Z,96.49
2023-12-11T19:19:08.166Z,96.60
2023-12-11T19:24:13.489Z,96.68
2023-12-11T19:29:19.670Z,96.70
2023-12-11T19:34:23.861Z,96.67
2023-12-11T19:39:29.435Z,96.68
2023-12-11T19:44:36.339Z,97.07
2023-12-11T19:49:41.831Z,96.93
2023-12-11T19:54:47.084Z,97.17
2023-12-11T19:59:51.934Z,97.55
2023-12-11T20:04:55.874Z,97.43
2023-12-11T20:10:02.899Z,97.73
2023-12-11T20:15:07.463Z,97.62
2023-12-11T20:20:11.666Z,97.91
2023-12-11T20:25:15.409Z,97.97
2023-12-11T20:30:20.963Z,98.08
2023-12-11T20:35:24.373Z,97.92
2023-12-11T20:40:27.897Z,98.00
2023-12-11T20:45:31.480Z,97.93
2023-12-11T20:50:36.897Z,98.27
2023-12-11T20:55:46.836Z,98.16
2023-12-11T21:00:50.507Z,98.48
2023-12-11T21:05:54.126Z,98.40
2023-12-11T21:10:59.219Z,98.28
2023-12-11T21:16:05.776Z,98.41
2023-12-11T21:21:10.907Z,98.51
2023-12-11T21:26:21.498Z,98.52
2023-12-11T21:31:34.134Z,98.74
2023-12-11T21:36:42.650Z,98.73
2023-12-11T21:41:47.559Z,98.44
2023-12-11T21:46:52.690Z,98.55
2023-12-11T21:51:59.849Z,98.62
2023-12-11T21:57:04.531Z,98.51
2023-12-11T22:02:09.175Z,98.52
2023-12-11T22:07:17.414Z,98.40
2023-12-11T22:12:24.556Z,98.56
2023-12-11T22:17:30.313Z,98.52
2023-12-11T22:22:35.832Z,98.62
2023-12-11T22:27:42.002Z,98.69
2023-12-11T22:32:46.069Z,98.83
2023-12-11T22:37:51.009Z,98.82
2023-12-11T22:42:54.797Z,99.01
2023-12-11T22:47:59.335Z,99.48
2023-12-11T22:53:03.235Z,99.51
2023-12-11T22:58:14.004Z,99.05
2023-12-11T23:03:20.276Z,99.24
2023-12-11T23:08:25.870Z,98.75
2023-12-11T23:13:31.951Z,98.67
2023-12-11T23:18:35.968Z,98.63
2023-12-11T23:23:40.596Z,99.26
2023-12-11T23:28:45.050Z,99.08
2023-12-11T23:33:49.401Z,99.06
2023-12-11T23:38:53.831Z,98.69
2023-12-11T23:43:58.395Z,98.85
2023-12-11T23:49:03.231Z,98.72
2023-12-11T23:54:08.057Z,98.68
2023-12-11T23:59:12.239Z,98.67
